createdAt,value
2022-11-24T00:00:51.310Z,58.49
2022-11-24T00:01:51.334Z,57.85
2022-11-24T00:02:51.421Z,57.85
2022-11-24T00:03:51.297Z,57.69
2022-11-24T00:04:51.268Z,58.01
2022-11-24T00:05:51.282Z,58.49
2022-11-24T00:06:51.239Z,57.85
2022-11-24T00:07:51.289Z,57.20
2022-11-24T00:08:51.237Z,58.17
2022-11-24T00:09:51.200Z,58.17
2022-11-24T00:10:51.195Z,60.10
2022-11-24T00:11:51.171Z,59.30
2022-11-24T00:12:51.166Z,59.78
2022-11-24T00:13:51.195Z,60.26
2022-11-24T00:14:51.152Z,58.97
2022-11-24T00:15:51.136Z,58.17
2022-11-24T00:16:51.187Z,59.46
2022-11-24T00:17:51.117Z,59.78
2022-11-24T00:18:51.127Z,59.30
2022-11-24T00:19:51.090Z,58.33
2022-11-24T00:20:51.079Z,57.36
2022-11-24T00:21:51.141Z,57.36
2022-11-24T00:22:51.098Z,58.81
2022-11-24T00:23:51.068Z,58.81
2022-11-24T00:24:51.035Z,58.49
2022-11-24T00:25:51.019Z,57.52
2022-11-24T00:26:51.011Z,57.69
2022-11-24T00:27:51.000Z,59.30
2022-11-24T00:28:51.036Z,58.01
2022-11-24T00:29:50.978Z,58.81
2022-11-24T00:30:51.009Z,56.88
2022-11-24T00:31:50.953Z,58.65
2022-11-24T00:32:50.950Z,58.97
2022-11-24T00:33:50.957Z,58.49
2022-11-24T00:34:50.922Z,57.52
2022-11-24T00:35:50.905Z,60.26
2022-11-24T00:36:50.905Z,57.04
2022-11-24T00:37:50.992Z,57.85
2022-11-24T00:38:50.887Z,59.30
2022-11-24T00:39:50.887Z,58.33
2022-11-24T00:40:50.859Z,59.46
2022-11-24T00:41:50.837Z,57.85
2022-11-24T00:42:50.827Z,58.49
2022-11-24T00:43:50.840Z,57.36
2022-11-24T00:44:50.801Z,59.46
2022-11-24T00:45:50.905Z,60.10
2022-11-24T00:46:50.839Z,58.17
2022-11-24T00:47:50.771Z,56.40
2022-11-24T00:48:50.779Z,57.85
2022-11-24T00:49:50.753Z,59.30
2022-11-24T00:50:50.777Z,58.65
2022-11-24T00:51:50.728Z,57.36
2022-11-24T00:52:50.719Z,59.30
2022-11-24T00:53:50.724Z,58.65
2022-11-24T00:54:50.688Z,60.59
2022-11-24T00:55:50.684Z,58.01
2022-11-24T00:56:50.674Z,59.62
2022-11-24T00:57:50.672Z,57.04
2022-11-24T00:58:50.700Z,56.88
2022-11-24T00:59:50.648Z,57.36
2022-11-24T01:00:50.640Z,58.01
2022-11-24T01:01:50.670Z,57.85
2022-11-24T01:02:51.654Z,58.65
2022-11-24T01:03:50.616Z,59.30
2022-11-24T01:04:50.598Z,57.52
2022-11-24T01:05:50.619Z,58.17
2022-11-24T01:06:50.571Z,61.07
2022-11-24T01:07:50.591Z,57.85
2022-11-24T01:08:50.568Z,58.01
2022-11-24T01:09:50.564Z,59.62
2022-11-24T01:10:50.519Z,58.33
2022-11-24T01:11:50.511Z,59.46
2022-11-24T01:12:50.531Z,59.62
2022-11-24T01:13:50.508Z,57.85
2022-11-24T01:14:50.467Z,58.33
2022-11-24T01:15:50.521Z,56.88
2022-11-24T01:16:50.485Z,57.20
2022-11-24T01:17:50.444Z,56.72
2022-11-24T01:18:50.480Z,56.56
2022-11-24T01:19:50.429Z,57.20
2022-11-24T01:20:50.410Z,57.36
2022-11-24T01:21:50.404Z,56.88
2022-11-24T01:22:50.400Z,57.36
2022-11-24T01:23:50.425Z,56.40
2022-11-24T01:24:50.381Z,56.88
2022-11-24T01:25:50.359Z,58.17
2022-11-24T01:26:50.346Z,57.52
2022-11-24T01:27:50.335Z,58.01
2022-11-24T01:28:50.363Z,58.33
2022-11-24T01:29:50.318Z,57.69
2022-11-24T01:30:50.386Z,58.17
2022-11-24T01:31:50.379Z,58.49
2022-11-24T01:32:50.275Z,55.75
2022-11-24T01:33:50.264Z,57.20
2022-11-24T01:34:50.293Z,58.33
2022-11-24T01:35:50.249Z,57.85
2022-11-24T01:36:50.240Z,56.72
2022-11-24T01:37:50.239Z,56.88
2022-11-24T01:38:50.215Z,56.07
2022-11-24T01:39:50.240Z,58.65
2022-11-24T01:40:50.196Z,57.36
2022-11-24T01:41:50.184Z,56.40
2022-11-24T01:42:50.167Z,56.72
2022-11-24T01:43:50.161Z,55.11
2022-11-24T01:44:50.174Z,58.01
2022-11-24T01:45:50.156Z,57.69
2022-11-24T01:46:50.122Z,58.01
2022-11-24T01:47:50.118Z,56.40
2022-11-24T01:48:50.111Z,57.85
2022-11-24T01:49:50.108Z,57.36
2022-11-24T01:50:50.075Z,57.36
2022-11-24T01:51:50.076Z,58.33
2022-11-24T01:52:50.050Z,56.24
2022-11-24T01:53:51.042Z,57.04
2022-11-24T01:54:50.048Z,54.95
2022-11-24T01:55:50.022Z,54.79
2022-11-24T01:56:50.008Z,55.91
2022-11-24T01:57:50.009Z,57.52
2022-11-24T01:58:49.993Z,55.11
2022-11-24T01:59:49.997Z,56.72
2022-11-24T02:00:49.970Z,57.85
2022-11-24T02:01:50.031Z,55.75
2022-11-24T02:02:50.060Z,54.62
2022-11-24T02:03:49.941Z,58.01
2022-11-24T02:04:49.947Z,57.36
2022-11-24T02:05:49.912Z,57.52
2022-11-24T02:06:49.902Z,59.30
2022-11-24T02:07:49.935Z,56.88
2022-11-24T02:08:49.882Z,58.17
2022-11-24T02:09:49.890Z,58.01
2022-11-24T02:10:49.850Z,56.72
2022-11-24T02:11:49.843Z,55.75
2022-11-24T02:12:49.855Z,56.40
2022-11-24T02:13:49.813Z,55.43
2022-11-24T02:14:49.824Z,55.75
2022-11-24T02:15:49.858Z,57.85
2022-11-24T02:16:49.788Z,55.91
2022-11-24T02:17:52.334Z,58.17
2022-11-24T02:19:23.444Z,56.24
2022-11-24T02:19:49.755Z,57.36
2022-11-24T02:20:49.742Z,57.52
2022-11-24T02:21:49.714Z,56.40
2022-11-24T02:22:49.722Z,54.46
2022-11-24T02:23:49.705Z,57.52
2022-11-24T02:24:49.716Z,56.56
2022-11-24T02:25:49.685Z,58.49
2022-11-24T02:26:49.682Z,55.91
2022-11-24T02:27:53.855Z,56.07
2022-11-24T02:28:50.657Z,57.04
2022-11-24T02:29:49.668Z,57.85
2022-11-24T02:30:49.668Z,56.88
2022-11-24T02:31:49.622Z,57.85
2022-11-24T02:32:49.614Z,58.01
2022-11-24T02:33:49.605Z,57.04
2022-11-24T02:34:49.612Z,56.72
2022-11-24T02:35:49.590Z,56.40
2022-11-24T02:36:49.573Z,59.46
2022-11-24T02:37:49.558Z,57.36
2022-11-24T02:38:49.547Z,55.91
2022-11-24T02:39:49.559Z,55.11
2022-11-24T02:40:49.530Z,57.04
2022-11-24T02:41:49.523Z,58.17
2022-11-24T02:42:49.505Z,57.85
2022-11-24T02:43:49.500Z,59.46
2022-11-24T02:44:49.507Z,56.40
2022-11-24T02:45:49.468Z,57.52
2022-11-24T02:46:49.463Z,57.52
2022-11-24T02:47:49.453Z,59.46
2022-11-24T02:48:49.439Z,59.46
2022-11-24T02:49:49.439Z,57.36
2022-11-24T02:50:49.411Z,57.36
2022-11-24T02:51:49.400Z,61.07
2022-11-24T02:52:49.388Z,57.52
2022-11-24T02:53:49.373Z,60.75
2022-11-24T02:54:49.388Z,57.85
2022-11-24T02:55:49.355Z,57.69
2022-11-24T02:56:49.339Z,55.59
2022-11-24T02:57:49.324Z,57.52
2022-11-24T02:58:49.344Z,57.20
2022-11-24T02:59:49.332Z,58.65
2022-11-24T03:00:49.299Z,58.81
2022-11-24T03:01:49.348Z,59.30
2022-11-24T03:02:49.310Z,60.26
2022-11-24T03:03:49.268Z,57.69
2022-11-24T03:04:49.273Z,60.10
2022-11-24T03:05:49.231Z,58.49
2022-11-24T03:06:49.255Z,57.36
2022-11-24T03:07:49.261Z,59.46
2022-11-24T03:08:49.227Z,58.33
2022-11-24T03:09:49.209Z,56.72
2022-11-24T03:10:49.251Z,55.59
2022-11-24T03:11:49.172Z,56.07
2022-11-24T03:12:49.160Z,58.49
2022-11-24T03:13:49.148Z,57.85
2022-11-24T03:14:49.162Z,55.11
2022-11-24T03:15:49.275Z,55.27
2022-11-24T03:16:49.123Z,57.20
2022-11-24T03:17:49.108Z,58.97
2022-11-24T03:18:49.132Z,58.49
2022-11-24T03:19:49.189Z,59.14
2022-11-24T03:20:49.080Z,58.33
2022-11-24T03:21:49.063Z,58.01
2022-11-24T03:22:49.055Z,58.33
2022-11-24T03:23:49.049Z,57.52
2022-11-24T03:24:49.049Z,60.75
2022-11-24T03:25:49.006Z,59.78
2022-11-24T03:26:49.013Z,58.17
2022-11-24T03:27:48.995Z,58.49
2022-11-24T03:28:48.988Z,58.49
2022-11-24T03:29:48.988Z,56.88
2022-11-24T03:30:49.049Z,58.65
2022-11-24T03:31:48.946Z,59.14
2022-11-24T03:32:48.937Z,58.97
2022-11-24T03:33:48.916Z,58.33
2022-11-24T03:34:48.931Z,58.01
2022-11-24T03:35:48.904Z,58.49
2022-11-24T03:36:48.879Z,57.69
2022-11-24T03:37:49.877Z,59.78
2022-11-24T03:38:48.868Z,58.81
2022-11-24T03:39:48.879Z,60.42
2022-11-24T03:40:48.849Z,58.97
2022-11-24T03:41:48.825Z,59.94
2022-11-24T03:42:48.822Z,59.78
2022-11-24T03:43:48.813Z,59.78
2022-11-24T03:44:48.822Z,60.42
2022-11-24T03:45:48.782Z,61.07
2022-11-24T03:46:48.847Z,60.42
2022-11-24T03:47:48.772Z,58.97
2022-11-24T03:48:48.774Z,60.26
2022-11-24T03:49:48.754Z,59.78
2022-11-24T03:50:48.738Z,59.62
2022-11-24T03:51:48.727Z,62.68
2022-11-24T03:52:48.712Z,57.36
2022-11-24T03:53:48.703Z,58.49
2022-11-24T03:54:48.712Z,60.42
2022-11-24T03:55:48.689Z,61.07
2022-11-24T03:56:48.670Z,59.62
2022-11-24T03:57:48.657Z,58.81
2022-11-24T03:58:48.650Z,59.94
2022-11-24T03:59:48.652Z,59.46
2022-11-24T04:00:48.626Z,59.78
2022-11-24T04:01:48.652Z,59.78
2022-11-24T04:02:48.670Z,58.01
2022-11-24T04:03:48.595Z,60.91
2022-11-24T04:04:49.873Z,58.97
2022-11-24T04:05:48.569Z,58.97
2022-11-24T04:06:48.561Z,61.23
2022-11-24T04:07:48.590Z,59.62
2022-11-24T04:08:48.540Z,59.78
2022-11-24T04:09:48.544Z,60.10
2022-11-24T04:10:48.515Z,60.10
2022-11-24T04:11:48.506Z,59.46
2022-11-24T04:12:48.488Z,61.39
2022-11-24T04:13:48.487Z,62.04
2022-11-24T04:14:48.495Z,60.42
2022-11-24T04:15:48.508Z,63.00
2022-11-24T04:16:48.455Z,61.39
2022-11-24T04:17:48.452Z,59.46
2022-11-24T04:18:48.445Z,60.42
2022-11-24T04:19:48.435Z,58.97
2022-11-24T04:20:48.401Z,60.75
2022-11-24T04:21:48.394Z,59.62
2022-11-24T04:22:48.389Z,60.26
2022-11-24T04:23:48.376Z,62.68
2022-11-24T04:24:48.385Z,61.23
2022-11-24T04:25:48.358Z,62.20
2022-11-24T04:26:48.339Z,58.17
2022-11-24T04:27:48.333Z,58.65
2022-11-24T04:28:48.320Z,62.52
2022-11-24T04:29:48.324Z,62.36
2022-11-24T04:30:48.300Z,60.59
2022-11-24T04:31:48.371Z,59.94
2022-11-24T04:32:48.261Z,61.87
2022-11-24T04:33:48.262Z,62.52
2022-11-24T04:34:48.266Z,61.07
2022-11-24T04:35:48.242Z,61.07
2022-11-24T04:36:48.217Z,58.97
2022-11-24T04:37:48.217Z,59.14
2022-11-24T04:39:24.421Z,60.59
2022-11-24T04:39:49.338Z,60.75
2022-11-24T04:40:48.189Z,62.04
2022-11-24T04:41:48.173Z,60.10
2022-11-24T04:42:48.159Z,61.23
2022-11-24T04:43:48.148Z,61.39
2022-11-24T04:44:48.150Z,62.84
2022-11-24T04:45:48.127Z,62.84
2022-11-24T04:46:48.179Z,62.36
2022-11-24T04:47:48.106Z,63.00
2022-11-24T04:48:48.089Z,61.55
2022-11-24T04:49:48.102Z,61.39
2022-11-24T04:50:48.060Z,61.39
2022-11-24T04:51:48.050Z,61.39
2022-11-24T04:52:48.051Z,61.39
2022-11-24T04:53:48.024Z,62.04
2022-11-24T04:54:48.027Z,62.20
2022-11-24T04:55:48.041Z,61.39
2022-11-24T04:56:47.996Z,62.04
2022-11-24T04:57:47.992Z,61.39
2022-11-24T04:58:47.978Z,60.26
2022-11-24T04:59:47.968Z,60.26
2022-11-24T05:00:47.971Z,59.78
2022-11-24T05:01:47.982Z,59.30
2022-11-24T05:02:47.934Z,61.23
2022-11-24T05:03:47.957Z,63.65
2022-11-24T05:04:47.955Z,61.87
2022-11-24T05:05:47.935Z,62.52
2022-11-24T05:06:47.882Z,61.39
2022-11-24T05:07:48.026Z,62.04
2022-11-24T05:08:47.864Z,61.07
2022-11-24T05:09:58.880Z,61.71
2022-11-24T05:10:49.869Z,61.71
2022-11-24T05:11:47.830Z,60.10
2022-11-24T05:12:51.265Z,61.71
2022-11-24T05:13:48.809Z,61.39
2022-11-24T05:14:47.799Z,61.87
2022-11-24T05:15:47.852Z,62.52
2022-11-24T05:16:47.764Z,61.07
2022-11-24T05:17:47.763Z,58.97
2022-11-24T05:18:47.752Z,63.00
2022-11-24T05:19:47.742Z,63.33
2022-11-24T05:20:47.749Z,62.68
2022-11-24T05:21:47.716Z,63.65
2022-11-24T05:22:47.708Z,61.71
2022-11-24T05:23:47.692Z,63.33
2022-11-24T05:24:47.684Z,62.52
2022-11-24T05:25:48.114Z,62.68
2022-11-24T05:26:48.661Z,62.52
2022-11-24T05:27:47.652Z,60.59
2022-11-24T05:28:47.658Z,63.49
2022-11-24T05:29:47.631Z,62.52
2022-11-24T05:30:47.628Z,62.68
2022-11-24T05:31:47.643Z,63.00
2022-11-24T05:32:47.598Z,62.04
2022-11-24T05:33:47.580Z,62.04
2022-11-24T05:34:47.568Z,61.55
2022-11-24T05:35:47.592Z,62.52
2022-11-24T05:36:47.556Z,62.52
2022-11-24T05:37:47.558Z,63.65
2022-11-24T05:38:47.535Z,63.81
2022-11-24T05:39:47.515Z,62.20
2022-11-24T05:40:47.530Z,64.13
2022-11-24T05:41:47.498Z,63.81
2022-11-24T05:42:48.344Z,63.00
2022-11-24T05:43:48.467Z,64.13
2022-11-24T05:44:47.464Z,63.65
2022-11-24T05:45:47.471Z,64.61
2022-11-24T05:46:47.474Z,61.55
2022-11-24T05:47:47.431Z,64.13
2022-11-24T05:48:47.419Z,64.94
2022-11-24T05:49:47.414Z,62.04
2022-11-24T05:50:47.418Z,62.04
2022-11-24T05:51:47.395Z,62.84
2022-11-24T05:52:47.376Z,62.04
2022-11-24T05:53:47.363Z,63.97
2022-11-24T05:54:47.349Z,62.36
2022-11-24T05:55:47.352Z,63.16
2022-11-24T05:56:47.327Z,63.81
2022-11-24T05:57:47.324Z,62.52
2022-11-24T05:58:47.307Z,63.33
2022-11-24T05:59:47.290Z,61.71
2022-11-24T06:00:47.296Z,61.87
2022-11-24T06:01:47.349Z,64.45
2022-11-24T06:02:47.332Z,64.13
2022-11-24T06:03:47.243Z,63.16
2022-11-24T06:04:47.246Z,63.16
2022-11-24T06:05:48.248Z,62.04
2022-11-24T06:06:47.254Z,62.04
2022-11-24T06:07:47.210Z,61.71
2022-11-24T06:08:47.190Z,61.07
2022-11-24T06:09:47.185Z,63.00
2022-11-24T06:10:47.192Z,64.13
2022-11-24T06:11:47.159Z,61.55
2022-11-24T06:12:47.147Z,63.81
2022-11-24T06:13:47.194Z,63.81
2022-11-24T06:14:47.134Z,61.55
2022-11-24T06:15:47.134Z,62.20
2022-11-24T06:16:47.148Z,62.36
2022-11-24T06:17:47.108Z,62.52
2022-11-24T06:18:47.077Z,63.16
2022-11-24T06:19:47.081Z,63.65
2022-11-24T06:21:09.257Z,63.00
2022-11-24T06:21:49.051Z,61.55
2022-11-24T06:22:47.034Z,63.97
2022-11-24T06:23:47.022Z,63.81
2022-11-24T06:24:47.039Z,62.52
2022-11-24T06:25:51.423Z,63.97
2022-11-24T06:26:47.985Z,64.61
2022-11-24T06:27:47.969Z,64.45
2022-11-24T06:28:46.968Z,65.26
2022-11-24T06:29:46.978Z,64.61
2022-11-24T06:30:46.984Z,62.04
2022-11-24T06:31:46.995Z,63.97
2022-11-24T06:32:49.620Z,64.13
2022-11-24T06:33:47.910Z,64.61
2022-11-24T06:34:46.903Z,63.65
2022-11-24T06:35:46.914Z,65.58
2022-11-24T06:36:46.881Z,65.10
2022-11-24T06:37:46.866Z,65.26
2022-11-24T06:38:46.843Z,63.65
2022-11-24T06:39:47.838Z,65.10
2022-11-24T06:40:46.855Z,65.90
2022-11-24T06:41:46.861Z,64.61
2022-11-24T06:42:46.850Z,64.29
2022-11-24T06:43:46.797Z,65.58
2022-11-24T06:44:46.798Z,64.78
2022-11-24T06:45:46.825Z,65.74
2022-11-24T06:46:46.766Z,65.58
2022-11-24T06:47:46.804Z,64.29
2022-11-24T06:48:46.756Z,64.94
2022-11-24T06:49:46.742Z,65.10
2022-11-24T06:50:46.759Z,64.61
2022-11-24T06:51:46.723Z,66.55
2022-11-24T06:52:46.708Z,65.74
2022-11-24T06:53:46.705Z,64.61
2022-11-24T06:54:46.720Z,66.39
2022-11-24T06:55:46.691Z,66.06
2022-11-24T06:56:46.659Z,63.49
2022-11-24T06:57:46.657Z,64.94
2022-11-24T06:58:46.644Z,64.61
2022-11-24T06:59:46.631Z,65.74
2022-11-24T07:00:46.682Z,66.06
2022-11-24T07:01:46.612Z,65.10
2022-11-24T07:02:46.648Z,63.65
2022-11-24T07:03:46.584Z,64.45
2022-11-24T07:04:46.575Z,64.78
2022-11-24T07:05:46.593Z,65.58
2022-11-24T07:06:46.555Z,66.39
2022-11-24T07:07:46.560Z,65.26
2022-11-24T07:08:46.531Z,64.94
2022-11-24T07:09:46.530Z,64.29
2022-11-24T07:10:46.535Z,64.29
2022-11-24T07:11:46.494Z,65.10
2022-11-24T07:12:46.489Z,65.10
2022-11-24T07:13:46.487Z,66.39
2022-11-24T07:14:46.474Z,65.58
2022-11-24T07:15:46.489Z,64.45
2022-11-24T07:16:46.512Z,66.87
2022-11-24T07:17:46.448Z,64.78
2022-11-24T07:18:46.430Z,64.78
2022-11-24T07:19:46.410Z,65.42
2022-11-24T07:20:46.427Z,63.81
2022-11-24T07:21:46.401Z,65.26
2022-11-24T07:22:46.394Z,63.33
2022-11-24T07:23:46.378Z,64.45
2022-11-24T07:24:46.364Z,64.13
2022-11-24T07:25:46.379Z,63.97
2022-11-24T07:26:46.337Z,65.42
2022-11-24T07:27:46.329Z,63.49
2022-11-24T07:28:46.320Z,64.61
2022-11-24T07:29:46.311Z,63.65
2022-11-24T07:30:46.314Z,66.55
2022-11-24T07:31:46.354Z,64.61
2022-11-24T07:32:46.275Z,63.49
2022-11-24T07:33:46.264Z,64.94
2022-11-24T07:34:46.259Z,65.74
2022-11-24T07:35:46.238Z,65.10
2022-11-24T07:36:46.247Z,64.29
2022-11-24T07:37:46.220Z,63.33
2022-11-24T07:38:46.207Z,64.61
2022-11-24T07:39:46.197Z,63.33
2022-11-24T07:40:46.188Z,63.00
2022-11-24T07:41:46.192Z,66.23
2022-11-24T07:42:46.158Z,65.58
2022-11-24T07:43:46.153Z,64.13
2022-11-24T07:44:46.145Z,64.45
2022-11-24T07:45:46.162Z,66.06
2022-11-24T07:46:46.139Z,64.61
2022-11-24T07:47:46.098Z,63.97
2022-11-24T07:48:46.095Z,64.29
2022-11-24T07:49:46.083Z,63.00
2022-11-24T07:50:47.941Z,63.49
2022-11-24T07:51:46.134Z,64.78
2022-11-24T07:52:46.047Z,65.10
2022-11-24T07:53:46.046Z,63.49
2022-11-24T07:54:46.030Z,63.97
2022-11-24T07:55:46.009Z,62.20
2022-11-24T07:56:46.027Z,63.49
2022-11-24T07:57:45.996Z,62.84
2022-11-24T07:58:51.426Z,62.84
2022-11-24T07:59:46.975Z,65.10
2022-11-24T08:00:45.964Z,64.61
2022-11-24T08:01:46.050Z,63.16
2022-11-24T08:02:45.939Z,62.04
2022-11-24T08:03:45.990Z,63.49
2022-11-24T08:04:45.912Z,62.84
2022-11-24T08:06:22.194Z,63.33
2022-11-24T08:06:47.953Z,63.33
2022-11-24T08:07:47.001Z,63.81
2022-11-24T08:08:45.874Z,64.13
2022-11-24T08:09:45.865Z,63.97
2022-11-24T08:10:45.858Z,63.16
2022-11-24T08:11:45.863Z,63.00
2022-11-24T08:12:45.826Z,63.16
2022-11-24T08:13:45.818Z,62.20
2022-11-24T08:14:45.802Z,63.65
2022-11-24T08:15:45.796Z,62.84
2022-11-24T08:16:45.868Z,64.13
2022-11-24T08:17:45.771Z,62.68
2022-11-24T08:19:17.671Z,63.00
2022-11-24T08:19:45.747Z,64.13
2022-11-24T08:20:45.755Z,63.97
2022-11-24T08:21:45.780Z,64.13
2022-11-24T08:22:45.720Z,62.84
2022-11-24T08:23:45.713Z,63.00
2022-11-24T08:24:45.702Z,62.84
2022-11-24T08:25:45.690Z,62.84
2022-11-24T08:26:45.696Z,60.75
2022-11-24T08:27:45.682Z,62.68
2022-11-24T08:28:45.658Z,64.29
2022-11-24T08:29:45.641Z,62.36
2022-11-24T08:30:45.635Z,64.61
2022-11-24T08:31:45.706Z,63.49
2022-11-24T08:32:45.624Z,63.16
2022-11-24T08:33:45.596Z,62.04
2022-11-24T08:34:45.588Z,63.00
2022-11-24T08:35:45.610Z,64.61
2022-11-24T08:36:45.608Z,62.20
2022-11-24T08:37:45.604Z,61.07
2022-11-24T08:38:45.552Z,62.04
2022-11-24T08:39:45.543Z,62.84
2022-11-24T08:40:45.538Z,61.87
2022-11-24T08:41:45.520Z,64.61
2022-11-24T08:42:45.509Z,61.39
2022-11-24T08:43:45.497Z,63.00
2022-11-24T08:44:45.484Z,62.84
2022-11-24T08:45:45.525Z,64.78
2022-11-24T08:46:45.487Z,62.68
2022-11-24T08:47:45.455Z,61.55
2022-11-24T08:48:45.442Z,63.65
2022-11-24T08:49:45.422Z,62.52
2022-11-24T08:50:45.442Z,62.68
2022-11-24T08:51:45.427Z,62.20
2022-11-24T08:52:45.457Z,63.97
2022-11-24T08:53:45.384Z,62.84
2022-11-24T08:54:45.390Z,62.20
2022-11-24T08:55:45.369Z,64.45
2022-11-24T08:56:45.371Z,62.84
2022-11-24T08:57:45.378Z,63.00
2022-11-24T08:58:45.375Z,62.52
2022-11-24T08:59:45.323Z,62.68
2022-11-24T09:00:45.324Z,63.97
2022-11-24T09:01:45.365Z,62.36
2022-11-24T09:02:45.305Z,63.97
2022-11-24T09:03:50.363Z,62.68
2022-11-24T09:04:47.333Z,64.13
2022-11-24T09:05:53.024Z,63.49
2022-11-24T09:06:46.278Z,62.36
2022-11-24T09:07:45.328Z,63.65
2022-11-24T09:08:45.234Z,63.97
2022-11-24T09:09:45.224Z,63.00
2022-11-24T09:10:45.224Z,62.84
2022-11-24T09:11:45.223Z,65.26
2022-11-24T09:12:45.193Z,64.61
2022-11-24T09:13:45.184Z,65.42
2022-11-24T09:14:45.172Z,63.16
2022-11-24T09:15:45.165Z,62.52
2022-11-24T09:16:45.218Z,63.81
2022-11-24T09:17:45.138Z,63.65
2022-11-24T09:18:45.132Z,62.36
2022-11-24T09:19:45.120Z,63.33
2022-11-24T09:20:45.112Z,63.00
2022-11-24T09:21:45.157Z,62.36
2022-11-24T09:22:45.089Z,64.29
2022-11-24T09:23:45.092Z,63.49
2022-11-24T09:24:45.107Z,63.81
2022-11-24T09:25:45.059Z,64.29
2022-11-24T09:26:47.643Z,63.65
2022-11-24T09:27:46.039Z,64.94
2022-11-24T09:28:45.025Z,62.84
2022-11-24T09:29:45.017Z,63.16
2022-11-24T09:30:45.044Z,64.78
2022-11-24T09:31:45.023Z,63.97
2022-11-24T09:32:44.992Z,64.13
2022-11-24T09:33:44.987Z,63.65
2022-11-24T09:34:44.964Z,65.26
2022-11-24T09:35:44.976Z,63.00
2022-11-24T09:36:44.973Z,64.45
2022-11-24T09:37:44.955Z,63.81
2022-11-24T09:38:44.926Z,65.90
2022-11-24T09:39:44.916Z,66.23
2022-11-24T09:40:44.923Z,65.10
2022-11-24T09:41:44.907Z,66.87
2022-11-24T09:42:49.315Z,63.97
2022-11-24T09:43:46.883Z,63.16
2022-11-24T09:44:44.877Z,63.81
2022-11-24T09:46:06.949Z,63.33
2022-11-24T09:46:46.962Z,65.74
2022-11-24T09:47:44.843Z,63.16
2022-11-24T09:48:44.832Z,64.94
2022-11-24T09:49:48.552Z,64.78
2022-11-24T09:50:44.815Z,64.94
2022-11-24T09:51:44.823Z,63.33
2022-11-24T09:52:44.819Z,63.16
2022-11-24T09:53:44.787Z,63.49
2022-11-24T09:54:44.790Z,63.33
2022-11-24T09:55:44.776Z,61.71
2022-11-24T09:56:44.771Z,61.71
2022-11-24T09:57:44.732Z,63.16
2022-11-24T09:58:44.724Z,65.10
2022-11-24T09:59:44.721Z,62.52
2022-11-24T10:00:44.710Z,62.36
2022-11-24T10:01:44.787Z,62.36
2022-11-24T10:02:44.690Z,61.55
2022-11-24T10:03:44.681Z,62.04
2022-11-24T10:04:44.727Z,63.65
2022-11-24T10:05:44.650Z,64.78
2022-11-24T10:06:44.666Z,63.97
2022-11-24T10:07:44.692Z,61.71
2022-11-24T10:08:44.636Z,64.45
2022-11-24T10:09:44.629Z,64.61
2022-11-24T10:10:44.608Z,63.16
2022-11-24T10:11:44.620Z,63.81
2022-11-24T10:12:44.588Z,63.16
2022-11-24T10:13:44.575Z,62.36
2022-11-24T10:14:44.572Z,63.33
2022-11-24T10:15:44.617Z,64.78
2022-11-24T10:16:44.567Z,64.45
2022-11-24T10:17:44.544Z,63.81
2022-11-24T10:18:44.529Z,63.65
2022-11-24T10:19:44.607Z,62.68
2022-11-24T10:20:44.536Z,63.16
2022-11-24T10:21:44.547Z,61.71
2022-11-24T10:22:44.507Z,65.26
2022-11-24T10:23:44.484Z,63.65
2022-11-24T10:24:44.467Z,63.49
2022-11-24T10:25:44.454Z,63.00
2022-11-24T10:26:44.478Z,62.36
2022-11-24T10:27:44.446Z,65.42
2022-11-24T10:28:44.455Z,63.16
2022-11-24T10:29:44.421Z,62.68
2022-11-24T10:30:44.490Z,62.36
2022-11-24T10:31:44.423Z,62.04
2022-11-24T10:32:44.395Z,62.52
2022-11-24T10:33:44.376Z,61.87
2022-11-24T10:34:44.375Z,61.71
2022-11-24T10:35:44.373Z,62.84
2022-11-24T10:36:44.394Z,62.68
2022-11-24T10:37:44.343Z,64.13
2022-11-24T10:38:44.350Z,62.20
2022-11-24T10:39:44.325Z,62.52
2022-11-24T10:40:59.759Z,63.33
2022-11-24T10:41:46.319Z,64.61
2022-11-24T10:42:45.294Z,62.04
2022-11-24T10:43:44.308Z,62.04
2022-11-24T10:44:44.279Z,60.91
2022-11-24T10:45:44.271Z,63.65
2022-11-24T10:46:44.341Z,63.65
2022-11-24T10:47:44.260Z,63.00
2022-11-24T10:48:44.243Z,62.04
2022-11-24T10:49:44.259Z,63.97
2022-11-24T10:50:44.217Z,62.84
2022-11-24T10:51:44.260Z,63.65
2022-11-24T10:52:44.205Z,61.87
2022-11-24T10:53:44.199Z,62.36
2022-11-24T10:54:44.216Z,61.87
2022-11-24T10:55:44.207Z,61.07
2022-11-24T10:56:44.175Z,61.55
2022-11-24T10:57:44.152Z,61.55
2022-11-24T10:58:44.137Z,61.07
2022-11-24T10:59:44.183Z,59.78
2022-11-24T11:00:44.121Z,62.20
2022-11-24T11:01:44.227Z,58.81
2022-11-24T11:02:44.156Z,60.10
2022-11-24T11:03:44.122Z,61.87
2022-11-24T11:04:44.092Z,59.94
2022-11-24T11:05:44.068Z,59.30
2022-11-24T11:06:44.085Z,61.71
2022-11-24T11:07:44.157Z,63.33
2022-11-24T11:08:44.044Z,62.04
2022-11-24T11:09:44.035Z,62.04
2022-11-24T11:10:44.021Z,63.16
2022-11-24T11:11:44.044Z,61.07
2022-11-24T11:12:45.114Z,62.36
2022-11-24T11:13:44.996Z,64.45
2022-11-24T11:14:43.984Z,63.65
2022-11-24T11:15:44.093Z,62.68
2022-11-24T11:16:43.983Z,62.68
2022-11-24T11:17:43.948Z,63.16
2022-11-24T11:18:43.948Z,64.13
2022-11-24T11:19:54.278Z,61.23
2022-11-24T11:20:45.938Z,61.39
2022-11-24T11:21:43.943Z,62.52
2022-11-24T11:22:43.920Z,61.87
2022-11-24T11:23:43.903Z,63.16
2022-11-24T11:24:43.885Z,63.16
2022-11-24T11:25:43.885Z,63.00
2022-11-24T11:26:43.884Z,62.04
2022-11-24T11:27:43.860Z,63.49
2022-11-24T11:28:43.836Z,62.36
2022-11-24T11:34:02.811Z,60.59
2022-11-24T11:34:03.244Z,63.00
2022-11-24T11:34:45.790Z,63.65
2022-11-24T11:35:43.772Z,62.84
2022-11-24T11:36:43.790Z,61.71
2022-11-24T11:37:43.750Z,61.55
2022-11-24T11:38:44.755Z,61.07
2022-11-24T11:39:48.490Z,62.36
2022-11-24T11:40:45.729Z,61.39
2022-11-24T11:41:43.740Z,62.04
2022-11-24T11:43:01.994Z,63.33
2022-11-24T11:43:45.719Z,63.00
2022-11-24T11:44:43.702Z,64.78
2022-11-24T11:45:43.721Z,63.97
2022-11-24T11:46:43.823Z,62.36
2022-11-24T11:47:43.662Z,61.55
2022-11-24T11:48:44.147Z,61.55
2022-11-24T11:49:43.641Z,63.49
2022-11-24T11:51:14.831Z,62.84
2022-11-24T11:51:45.750Z,63.00
2022-11-24T11:52:43.611Z,62.68
2022-11-24T11:53:43.643Z,61.71
2022-11-24T11:54:43.603Z,61.71
2022-11-24T11:55:49.492Z,62.68
2022-11-24T11:56:45.598Z,63.81
2022-11-24T11:57:43.575Z,63.00
2022-11-24T11:58:43.562Z,63.65
2022-11-24T11:59:43.544Z,62.36
2022-11-24T12:00:43.537Z,63.00
2022-11-24T12:01:43.714Z,62.68
2022-11-24T12:02:48.447Z,63.49
2022-11-24T12:03:44.599Z,63.00
2022-11-24T12:04:43.497Z,64.13
2022-11-24T12:05:43.485Z,64.78
2022-11-24T12:06:43.510Z,64.61
2022-11-24T12:07:43.547Z,64.78
2022-11-24T12:09:11.744Z,63.16
2022-11-24T12:09:45.450Z,63.49
2022-11-24T12:10:43.458Z,64.29
2022-11-24T12:11:43.439Z,63.16
2022-11-24T12:12:43.427Z,63.49
2022-11-24T12:13:43.407Z,64.13
2022-11-24T12:14:43.406Z,65.58
2022-11-24T12:15:43.444Z,66.71
2022-11-24T12:16:43.363Z,64.78
2022-11-24T12:17:43.386Z,66.23
2022-11-24T12:18:59.121Z,66.23
2022-11-24T12:19:45.341Z,65.58
2022-11-24T12:20:44.338Z,65.10
2022-11-24T12:21:43.328Z,63.49
2022-11-24T12:22:43.342Z,65.42
2022-11-24T12:23:43.313Z,65.90
2022-11-24T12:24:43.346Z,66.23
2022-11-24T12:25:43.290Z,68.00
2022-11-24T12:26:43.284Z,67.19
2022-11-24T12:27:43.290Z,67.03
2022-11-24T12:28:43.261Z,66.87
2022-11-24T12:29:43.256Z,64.94
2022-11-24T12:30:43.253Z,67.03
2022-11-24T12:31:43.273Z,66.06
2022-11-24T12:32:43.242Z,66.06
2022-11-24T12:33:49.140Z,67.68
2022-11-24T12:34:45.205Z,66.55
2022-11-24T12:35:43.183Z,67.51
2022-11-24T12:36:43.173Z,66.55
2022-11-24T12:37:43.188Z,65.90
2022-11-24T12:38:43.164Z,67.84
2022-11-24T12:39:43.144Z,67.19
2022-11-24T12:40:46.926Z,68.00
2022-11-24T12:41:44.145Z,65.58
2022-11-24T12:42:43.144Z,66.87
2022-11-24T12:43:43.110Z,66.71
2022-11-24T12:44:43.101Z,66.23
2022-11-24T12:45:43.095Z,65.90
2022-11-24T12:46:43.140Z,66.39
2022-11-24T12:47:43.099Z,66.55
2022-11-24T12:48:43.064Z,67.35
2022-11-24T12:49:43.070Z,67.19
2022-11-24T12:50:43.043Z,67.03
2022-11-24T12:51:43.042Z,66.87
2022-11-24T12:52:43.057Z,67.68
2022-11-24T12:53:43.017Z,65.42
2022-11-24T12:54:43.012Z,65.58
2022-11-24T12:55:43.009Z,66.55